• Join FlightAware (Why Join?)
  • Login
  • US Flag 
06:50PM EDT


 

Airport Tracker/Info


-or-


 

Live Flight TrackerFlight Track Log ✈ N724AE ✈ 01-May-2013 ✈ KDFW - KJAN

Flight Track Log - Related Links

Times and Time Zones

All times are in EDT time to prevent confusion due to time zone crossing. See the N724AE flight status page for this flight to view local times or setup timezone preferences in your user account.

Time Position Orientation Groundspeed Altitude Reporting Facility
EDT Latitude Longitude Course Direction KTS MPH feet Rate Location/Type
05:27PM 32.8833 -97.0333 77° East 175 201 1,200  Level Dallas / Fort Worth TRACON
05:28PM 32.8333 -97.0333 180° South 222 255 2,600 2,100 Climbing Dallas / Fort Worth TRACON
05:29PM 32.7667 -97.0333 180° South 254 292 5,000 2,280 Climbing Dallas / Fort Worth TRACON
05:30PM 32.6833 -96.8563 90° East  Level FlightAware Approximate
05:30PM 32.7167 -97.0167 164° South 282 325 7,000  Level Dallas / Fort Worth TRACON
05:31PM 32.6933 -96.7305 77° East  Level FlightAware Approximate
05:32PM 32.7166 -96.6065 77° East  Level FlightAware Approximate
05:32PM 32.7022 -96.7739 94° East 298 343 12,100  Level Fort Worth Center
05:33PM 32.7144 -96.6775 81° East 327 376 14,000 2,040 Climbing Fort Worth Center
05:34PM 32.7303 -96.5589 81° East 332 382 16,200 1,440 Climbing Fort Worth Center
05:35PM 32.7461 -96.4550 80° East 339 390 16,900 660 Climbing Fort Worth Center
05:36PM 32.7575 -96.3142 84° East 377 434 17,600 900 Climbing Fort Worth Center
05:37PM 32.7378 -96.1933 101° East 398 458 18,700 1,320 Climbing Fort Worth Center
05:38PM 32.7153 -96.0481 100° East 410 472 20,300 1,440 Climbing Fort Worth Center
05:39PM 32.6972 -95.9297 100° East 410 472 21,700 1,500 Climbing Fort Worth Center
05:40PM 32.6747 -95.7794 100° East 410 472 23,400 1,560 Climbing Fort Worth Center
05:41PM 32.6564 -95.6614 100° East 410 472 24,800 1,380 Climbing Fort Worth Center
05:42PM 32.6606 -95.5233 88° East 415 478 26,200 1,440 Climbing Fort Worth Center
05:43PM 32.6731 -95.3922 84° East 405 466 27,700 1,380 Climbing Fort Worth Center
05:44PM 32.6814 -95.2611 86° East 405 466 29,000 600 Climbing Fort Worth Center
05:45PM 32.6894 -95.1228 86° East 411 473 29,000  Level Fort Worth Center
05:46PM 32.6972 -94.9794 86° East 424 488 29,000  Level Fort Worth Center
05:47PM 32.7089 -94.8333 85° East 434 499 29,000  Level Fort Worth Center
05:48PM 32.7164 -94.6925 86° East 434 499 29,000  Level Fort Worth Center
05:49PM 32.7258 -94.5514 85° East 434 499 29,000  Level Fort Worth Center
05:50PM 32.7350 -94.4153 85° East 422 486 29,000 -660 Level Fort Worth Center
05:51PM 32.7422 -94.2767 86° East 422 486 27,700 -1,020 Descending Fort Worth Center
05:52PM 32.7511 -94.1381 86° East 422 486 27,000 -360 Descending Fort Worth Center
05:53PM 32.7581 -94.0019 86° East 422 486 27,000  Level Fort Worth Center
05:54PM 32.7625 -93.8636 88° East 422 486 27,000  Level Fort Worth Center
05:55PM 32.7358 -93.7336 104° East 407 468 27,000  Level Fort Worth Center
05:56PM 32.7256 -93.6008 95° East 407 468 27,000 -540 Level Fort Worth Center
05:57PM 32.7192 -93.4653 93° East 407 468 26,000 -1,020 Descending Fort Worth Center
05:58PM 32.7150 -93.3347 92° East 402 463 25,000 -1,500 Descending Fort Worth Center
05:59PM 32.7086 -93.1992 93° East 402 463 23,000 -1,500 Descending Fort Worth Center
06:00PM 32.7044 -93.0758 92° East 397 457 22,000 -540 Descending Fort Worth Center
06:01PM 32.6956 -92.9456 95° East 392 451 22,000  Level Fort Worth Center
06:02PM 32.6886 -92.8125 94° East 392 451 22,000  Level Fort Worth Center
06:03PM 32.6817 -92.6747 93° East 400 460 22,000  Level Fort Worth Center
06:05PM 32.6726 -92.5442 95° East  Level FlightAware Approximate
06:05PM 32.6625 -92.3994 95° East 411 473 22,000  Level Fort Worth Center
06:06PM 32.6547 -92.2592 94° East 418 481 22,000  Level Fort Worth Center
06:08PM 32.6761 -91.9714 85° East 420 483 22,000  Level Memphis Center
06:09PM 32.6883 -91.8358 84° East 415 478 22,000  Level Memphis Center
06:10PM 32.7044 -91.7078 81° East 404 465 22,000  Level Memphis Center
06:11PM 32.7036 -91.5719 90° East 404 465 22,000 -420 Level Memphis Center
06:12PM 32.6922 -91.4408 96° East 404 465 21,200 -1,140 Descending Memphis Center
06:13PM 32.6747 -91.3125 99° East 404 465 19,800 -1,500 Descending Memphis Center
06:14PM 32.6589 -91.1914 99° East 391 450 18,300 -1,500 Descending Memphis Center
06:15PM 32.6428 -91.0753 99° East 371 427 16,800 -1,500 Descending Memphis Center
06:16PM 32.6225 -90.9592 102° East 359 413 15,400 -1,500 Descending Memphis Center
06:17PM 32.6083 -90.8456 98° East 353 406 13,900 -1,500 Descending Memphis Center
06:18PM 32.5753 -90.7444 111° Southeast 343 395 12,400 -1,500 Descending Memphis Center
06:19PM 32.5150 -90.6481 127° Southeast 338 389 11,000 -720 Descending Memphis Center
06:20PM 32.4608 -90.5567 125° Southeast 343 395 11,000 -540 Level Memphis Center
06:21PM 32.4108 -90.4731 125° Southeast 333 383 10,000 -1,200 Descending Memphis Center
06:22PM 32.3672 -90.4064 128° Southeast 292 336 8,700 -1,560 Descending Memphis Center
06:23PM 32.3253 -90.3328 124° Southeast 256 295 6,900 -1,500 Descending Memphis Center
06:24PM 32.2856 -90.2689 126° Southeast 251 289 5,800 -1,020 Descending Memphis Center
06:25PM 32.2458 -90.2000 124° Southeast 245 282 4,900 -1,140 Descending Memphis Center
06:26PM 32.2083 -90.1339 124° Southeast 245 282 3,600 -1,200 Descending Memphis Center
06:27PM 32.1581 -90.0947 147° Southeast 228 262 2,600 -1,020 Descending Memphis Center